YBMA

Mount Isa Airport

Airport
ICAO code
YBMA
IATA Code
ISA
Summary
ICAO Region
APAC
ICAO Territory
Location

Mount Isa, Queensland

Serving
Mount Isa
Elevation
1121 ft
Coordinates
20° 40' 4" S , 139° 29' 30" E
Metar
Observation
YBMA 171030Z AUTO 12001KT 9999 // NCD 13/M04 Q1019 RF00.0/000.0
Station
Mount Isa Amo
Date/Time
2022-08-17 10:30:00
Wind direction
120°
Wind speed
01 kts
Lowest cloud amount
no clouds detected
Temperature
13°C
Dew point
-4°C
Humidity
30%
QNH
1019 hPa
Weather condition
n/a

Airport map

Aerial View

SKYbrary Partners:

Safety knowledge contributed by: